sensor_id;sensor_type;location;lat;lon;timestamp;temperature;humidity
76573;DHT22;65437;51.088;4.632;2022-12-07T00:01:44;17.80;50.60
76573;DHT22;65437;51.088;4.632;2022-12-07T00:04:12;17.90;50.80
76573;DHT22;65437;51.088;4.632;2022-12-07T00:06:41;17.80;50.80
76573;DHT22;65437;51.088;4.632;2022-12-07T00:09:13;17.80;50.90
76573;DHT22;65437;51.088;4.632;2022-12-07T00:11:36;17.90;51.00
76573;DHT22;65437;51.088;4.632;2022-12-07T00:14:05;17.80;51.10
76573;DHT22;65437;51.088;4.632;2022-12-07T00:16:32;17.90;51.10
76573;DHT22;65437;51.088;4.632;2022-12-07T00:18:59;17.90;51.20
76573;DHT22;65437;51.088;4.632;2022-12-07T00:21:31;17.90;51.20
76573;DHT22;65437;51.088;4.632;2022-12-07T00:23:55;17.80;51.20
76573;DHT22;65437;51.088;4.632;2022-12-07T00:26:29;17.80;51.20
76573;DHT22;65437;51.088;4.632;2022-12-07T00:28:57;17.90;51.30
76573;DHT22;65437;51.088;4.632;2022-12-07T00:31:31;17.80;51.20
76573;DHT22;65437;51.088;4.632;2022-12-07T00:33:53;17.80;51.20
76573;DHT22;65437;51.088;4.632;2022-12-07T00:36:21;17.80;51.20
76573;DHT22;65437;51.088;4.632;2022-12-07T00:38:48;17.80;51.30
76573;DHT22;65437;51.088;4.632;2022-12-07T00:41:17;17.80;51.30
76573;DHT22;65437;51.088;4.632;2022-12-07T00:43:44;17.80;51.30
76573;DHT22;65437;51.088;4.632;2022-12-07T00:46:11;17.80;51.40
76573;DHT22;65437;51.088;4.632;2022-12-07T00:48:39;17.80;51.30
76573;DHT22;65437;51.088;4.632;2022-12-07T00:51:06;17.80;51.30
76573;DHT22;65437;51.088;4.632;2022-12-07T00:53:34;17.80;51.40
76573;DHT22;65437;51.088;4.632;2022-12-07T00:56:04;17.80;51.50
76573;DHT22;65437;51.088;4.632;2022-12-07T00:58:31;17.80;51.40
76573;DHT22;65437;51.088;4.632;2022-12-07T01:01:02;17.80;51.40
76573;DHT22;65437;51.088;4.632;2022-12-07T01:03:30;17.80;51.40
76573;DHT22;65437;51.088;4.632;2022-12-07T01:05:57;17.80;51.60
76573;DHT22;65437;51.088;4.632;2022-12-07T01:08:24;17.80;51.40
76573;DHT22;65437;51.088;4.632;2022-12-07T01:11:01;17.80;51.40
76573;DHT22;65437;51.088;4.632;2022-12-07T01:13:29;17.80;51.40
76573;DHT22;65437;51.088;4.632;2022-12-07T01:15:57;17.80;51.30
76573;DHT22;65437;51.088;4.632;2022-12-07T01:18:26;17.80;51.20
76573;DHT22;65437;51.088;4.632;2022-12-07T01:21:07;17.80;51.20
76573;DHT22;65437;51.088;4.632;2022-12-07T01:23:31;17.80;51.30
76573;DHT22;65437;51.088;4.632;2022-12-07T01:25:59;17.80;51.30
76573;DHT22;65437;51.088;4.632;2022-12-07T01:28:27;17.80;52.00
76573;DHT22;65437;51.088;4.632;2022-12-07T01:31:04;17.80;51.50
76573;DHT22;65437;51.088;4.632;2022-12-07T01:33:23;17.80;51.40
76573;DHT22;65437;51.088;4.632;2022-12-07T01:35:49;17.80;51.30
76573;DHT22;65437;51.088;4.632;2022-12-07T01:38:17;17.80;51.30
76573;DHT22;65437;51.088;4.632;2022-12-07T01:40:43;17.80;51.90
76573;DHT22;65437;51.088;4.632;2022-12-07T01:43:17;17.80;51.20
76573;DHT22;65437;51.088;4.632;2022-12-07T01:45:45;17.80;51.10
76573;DHT22;65437;51.088;4.632;2022-12-07T01:48:13;17.80;51.20
76573;DHT22;65437;51.088;4.632;2022-12-07T01:50:41;17.80;51.20
76573;DHT22;65437;51.088;4.632;2022-12-07T01:53:09;17.80;51.20
76573;DHT22;65437;51.088;4.632;2022-12-07T01:55:37;17.80;51.20
76573;DHT22;65437;51.088;4.632;2022-12-07T01:58:05;17.70;51.30
76573;DHT22;65437;51.088;4.632;2022-12-07T02:00:33;17.80;51.30
76573;DHT22;65437;51.088;4.632;2022-12-07T02:03:08;17.80;51.40
76573;DHT22;65437;51.088;4.632;2022-12-07T02:05:35;17.80;51.20
76573;DHT22;65437;51.088;4.632;2022-12-07T02:08:03;17.80;51.40
76573;DHT22;65437;51.088;4.632;2022-12-07T02:10:30;17.70;51.40
76573;DHT22;65437;51.088;4.632;2022-12-07T02:15:33;17.70;51.30
76573;DHT22;65437;51.088;4.632;2022-12-07T02:18:01;17.80;51.40
76573;DHT22;65437;51.088;4.632;2022-12-07T02:31:18;17.80;51.30
76573;DHT22;65437;51.088;4.632;2022-12-07T02:34:00;17.80;51.90
76573;DHT22;65437;51.088;4.632;2022-12-07T02:36:27;17.80;51.30
76573;DHT22;65437;51.088;4.632;2022-12-07T02:38:59;17.80;51.30
76573;DHT22;65437;51.088;4.632;2022-12-07T02:41:31;17.70;51.20
76573;DHT22;65437;51.088;4.632;2022-12-07T02:44:07;17.70;51.30
76573;DHT22;65437;51.088;4.632;2022-12-07T02:46:36;17.70;51.20
76573;DHT22;65437;51.088;4.632;2022-12-07T02:49:02;17.70;51.20
76573;DHT22;65437;51.088;4.632;2022-12-07T02:51:30;17.80;51.30
76573;DHT22;65437;51.088;4.632;2022-12-07T02:53:58;17.70;51.20
76573;DHT22;65437;51.088;4.632;2022-12-07T02:56:30;17.70;51.20
76573;DHT22;65437;51.088;4.632;2022-12-07T02:59:02;17.70;51.30
76573;DHT22;65437;51.088;4.632;2022-12-07T03:01:35;17.60;51.40
76573;DHT22;65437;51.088;4.632;2022-12-07T03:04:06;17.60;51.40
76573;DHT22;65437;51.088;4.632;2022-12-07T03:06:28;17.70;51.30
76573;DHT22;65437;51.088;4.632;2022-12-07T03:09:02;17.70;51.70
76573;DHT22;65437;51.088;4.632;2022-12-07T03:11:40;17.70;51.30
76573;DHT22;65437;51.088;4.632;2022-12-07T03:16:37;17.70;51.10
76573;DHT22;65437;51.088;4.632;2022-12-07T03:19:09;17.70;51.20
76573;DHT22;65437;51.088;4.632;2022-12-07T03:21:34;17.70;51.20
76573;DHT22;65437;51.088;4.632;2022-12-07T03:24:04;17.70;51.20
76573;DHT22;65437;51.088;4.632;2022-12-07T03:26:34;17.70;51.20
76573;DHT22;65437;51.088;4.632;2022-12-07T03:29:02;17.70;51.10
76573;DHT22;65437;51.088;4.632;2022-12-07T03:31:30;17.80;51.20
76573;DHT22;65437;51.088;4.632;2022-12-07T03:34:06;17.80;51.10
76573;DHT22;65437;51.088;4.632;2022-12-07T03:36:34;17.70;51.00
76573;DHT22;65437;51.088;4.632;2022-12-07T03:39:03;17.80;51.10
76573;DHT22;65437;51.088;4.632;2022-12-07T03:41:29;17.70;51.00
76573;DHT22;65437;51.088;4.632;2022-12-07T03:43:57;17.80;51.00
76573;DHT22;65437;51.088;4.632;2022-12-07T03:46:42;17.70;50.90
76573;DHT22;65437;51.088;4.632;2022-12-07T03:49:10;17.80;51.00
76573;DHT22;65437;51.088;4.632;2022-12-07T03:51:45;17.80;50.90
76573;DHT22;65437;51.088;4.632;2022-12-07T03:54:29;17.80;51.00
76573;DHT22;65437;51.088;4.632;2022-12-07T03:56:54;17.80;50.90
76573;DHT22;65437;51.088;4.632;2022-12-07T03:59:22;17.70;51.00
76573;DHT22;65437;51.088;4.632;2022-12-07T04:01:54;17.70;51.00
76573;DHT22;65437;51.088;4.632;2022-12-07T04:04:21;17.80;51.00
76573;DHT22;65437;51.088;4.632;2022-12-07T04:06:49;17.70;51.00
76573;DHT22;65437;51.088;4.632;2022-12-07T04:09:16;17.70;51.00
76573;DHT22;65437;51.088;4.632;2022-12-07T04:11:43;17.70;51.00
76573;DHT22;65437;51.088;4.632;2022-12-07T04:14:10;17.70;51.00
76573;DHT22;65437;51.088;4.632;2022-12-07T04:16:50;17.70;51.00
76573;DHT22;65437;51.088;4.632;2022-12-07T04:19:18;17.70;50.90
76573;DHT22;65437;51.088;4.632;2022-12-07T04:21:45;17.70;51.00
76573;DHT22;65437;51.088;4.632;2022-12-07T04:24:13;17.70;51.00
76573;DHT22;65437;51.088;4.632;2022-12-07T04:26:41;17.70;51.00
76573;DHT22;65437;51.088;4.632;2022-12-07T04:29:08;17.70;51.10
76573;DHT22;65437;51.088;4.632;2022-12-07T04:31:35;17.70;51.00
76573;DHT22;65437;51.088;4.632;2022-12-07T04:34:03;17.70;51.00
76573;DHT22;65437;51.088;4.632;2022-12-07T04:36:30;17.70;51.00
76573;DHT22;65437;51.088;4.632;2022-12-07T04:38:57;17.70;51.10
76573;DHT22;65437;51.088;4.632;2022-12-07T04:41:24;17.70;51.10
76573;DHT22;65437;51.088;4.632;2022-12-07T04:43:58;17.60;51.00
76573;DHT22;65437;51.088;4.632;2022-12-07T04:46:25;17.70;50.90
76573;DHT22;65437;51.088;4.632;2022-12-07T04:48:52;17.60;50.80
76573;DHT22;65437;51.088;4.632;2022-12-07T04:51:20;17.60;50.90
76573;DHT22;65437;51.088;4.632;2022-12-07T04:53:47;17.60;50.80
76573;DHT22;65437;51.088;4.632;2022-12-07T04:56:15;17.70;50.90
76573;DHT22;65437;51.088;4.632;2022-12-07T04:58:43;17.60;50.80
76573;DHT22;65437;51.088;4.632;2022-12-07T05:01:10;17.60;50.80
76573;DHT22;65437;51.088;4.632;2022-12-07T05:03:37;17.60;50.80
76573;DHT22;65437;51.088;4.632;2022-12-07T05:06:05;17.60;50.80
76573;DHT22;65437;51.088;4.632;2022-12-07T05:08:32;17.60;50.80
76573;DHT22;65437;51.088;4.632;2022-12-07T05:11:00;17.60;51.30
76573;DHT22;65437;51.088;4.632;2022-12-07T05:13:27;17.60;50.70
76573;DHT22;65437;51.088;4.632;2022-12-07T05:15:54;17.60;50.60
76573;DHT22;65437;51.088;4.632;2022-12-07T05:18:21;17.60;50.50
76573;DHT22;65437;51.088;4.632;2022-12-07T05:20:48;17.60;50.50
76573;DHT22;65437;51.088;4.632;2022-12-07T05:23:15;17.60;50.50
76573;DHT22;65437;51.088;4.632;2022-12-07T05:25:42;17.60;50.50
76573;DHT22;65437;51.088;4.632;2022-12-07T05:28:09;17.60;50.50
76573;DHT22;65437;51.088;4.632;2022-12-07T05:30:36;17.60;50.50
76573;DHT22;65437;51.088;4.632;2022-12-07T05:33:03;17.60;50.50
76573;DHT22;65437;51.088;4.632;2022-12-07T05:35:31;17.60;50.50
76573;DHT22;65437;51.088;4.632;2022-12-07T05:37:58;17.60;50.50
76573;DHT22;65437;51.088;4.632;2022-12-07T05:40:25;17.60;50.40
76573;DHT22;65437;51.088;4.632;2022-12-07T05:42:52;17.60;50.40
76573;DHT22;65437;51.088;4.632;2022-12-07T05:45:19;17.60;50.40
76573;DHT22;65437;51.088;4.632;2022-12-07T05:47:45;17.60;50.30
76573;DHT22;65437;51.088;4.632;2022-12-07T05:50:13;17.60;50.20
76573;DHT22;65437;51.088;4.632;2022-12-07T05:52:39;17.60;50.20
76573;DHT22;65437;51.088;4.632;2022-12-07T05:55:07;17.60;50.20
76573;DHT22;65437;51.088;4.632;2022-12-07T05:57:34;17.60;50.20
76573;DHT22;65437;51.088;4.632;2022-12-07T06:00:01;17.60;50.00
76573;DHT22;65437;51.088;4.632;2022-12-07T06:02:28;17.60;50.10
76573;DHT22;65437;51.088;4.632;2022-12-07T06:04:55;17.60;50.10
76573;DHT22;65437;51.088;4.632;2022-12-07T06:07:22;17.60;50.10
76573;DHT22;65437;51.088;4.632;2022-12-07T06:09:49;17.60;50.10
76573;DHT22;65437;51.088;4.632;2022-12-07T06:12:16;17.60;50.10
76573;DHT22;65437;51.088;4.632;2022-12-07T06:15:01;17.60;50.00
76573;DHT22;65437;51.088;4.632;2022-12-07T06:17:28;17.60;50.00
76573;DHT22;65437;51.088;4.632;2022-12-07T06:19:55;17.60;50.00
76573;DHT22;65437;51.088;4.632;2022-12-07T06:22:22;17.60;49.90
76573;DHT22;65437;51.088;4.632;2022-12-07T06:24:49;17.60;49.90
76573;DHT22;65437;51.088;4.632;2022-12-07T06:27:16;17.60;50.00
76573;DHT22;65437;51.088;4.632;2022-12-07T06:29:43;17.60;49.80
76573;DHT22;65437;51.088;4.632;2022-12-07T06:32:10;17.70;49.80
76573;DHT22;65437;51.088;4.632;2022-12-07T06:34:38;17.70;49.70
76573;DHT22;65437;51.088;4.632;2022-12-07T06:37:05;17.70;49.70
76573;DHT22;65437;51.088;4.632;2022-12-07T06:39:32;17.70;49.70
76573;DHT22;65437;51.088;4.632;2022-12-07T06:41:59;17.70;49.70
76573;DHT22;65437;51.088;4.632;2022-12-07T06:44:26;17.60;49.70
76573;DHT22;65437;51.088;4.632;2022-12-07T06:46:54;17.60;49.70
76573;DHT22;65437;51.088;4.632;2022-12-07T06:49:21;17.70;49.70
76573;DHT22;65437;51.088;4.632;2022-12-07T06:51:48;17.70;49.60
76573;DHT22;65437;51.088;4.632;2022-12-07T06:54:15;17.60;49.60
76573;DHT22;65437;51.088;4.632;2022-12-07T06:56:42;17.70;49.70
76573;DHT22;65437;51.088;4.632;2022-12-07T06:59:09;17.60;49.70
76573;DHT22;65437;51.088;4.632;2022-12-07T07:01:36;17.60;49.70
76573;DHT22;65437;51.088;4.632;2022-12-07T07:04:03;17.60;49.70
76573;DHT22;65437;51.088;4.632;2022-12-07T07:06:30;17.60;49.60
76573;DHT22;65437;51.088;4.632;2022-12-07T07:08:57;17.50;49.80
76573;DHT22;65437;51.088;4.632;2022-12-07T07:11:24;17.50;49.90
76573;DHT22;65437;51.088;4.632;2022-12-07T07:13:51;17.60;49.90
76573;DHT22;65437;51.088;4.632;2022-12-07T07:16:19;17.60;49.70
76573;DHT22;65437;51.088;4.632;2022-12-07T07:18:46;17.60;49.70
76573;DHT22;65437;51.088;4.632;2022-12-07T07:21:13;17.60;49.70
76573;DHT22;65437;51.088;4.632;2022-12-07T07:23:40;17.60;49.70
76573;DHT22;65437;51.088;4.632;2022-12-07T07:26:07;17.60;49.70
76573;DHT22;65437;51.088;4.632;2022-12-07T07:28:34;17.60;49.70
76573;DHT22;65437;51.088;4.632;2022-12-07T07:31:01;17.60;49.70
76573;DHT22;65437;51.088;4.632;2022-12-07T07:33:28;17.60;49.80
76573;DHT22;65437;51.088;4.632;2022-12-07T07:35:55;17.60;49.80
76573;DHT22;65437;51.088;4.632;2022-12-07T07:38:22;17.60;49.80
76573;DHT22;65437;51.088;4.632;2022-12-07T07:40:49;17.60;49.90
76573;DHT22;65437;51.088;4.632;2022-12-07T07:43:16;17.60;50.00
76573;DHT22;65437;51.088;4.632;2022-12-07T07:45:43;17.60;50.00
76573;DHT22;65437;51.088;4.632;2022-12-07T07:48:11;17.60;50.00
76573;DHT22;65437;51.088;4.632;2022-12-07T07:50:38;17.60;50.00
76573;DHT22;65437;51.088;4.632;2022-12-07T07:53:05;17.60;50.00
76573;DHT22;65437;51.088;4.632;2022-12-07T07:55:32;17.60;50.10
76573;DHT22;65437;51.088;4.632;2022-12-07T07:57:59;17.60;50.10
76573;DHT22;65437;51.088;4.632;2022-12-07T08:00:26;17.60;50.10
76573;DHT22;65437;51.088;4.632;2022-12-07T08:02:53;17.60;50.00
76573;DHT22;65437;51.088;4.632;2022-12-07T08:05:20;17.60;50.10
76573;DHT22;65437;51.088;4.632;2022-12-07T08:07:47;17.60;50.10
76573;DHT22;65437;51.088;4.632;2022-12-07T08:10:14;17.60;50.30
76573;DHT22;65437;51.088;4.632;2022-12-07T08:12:42;17.60;50.30
76573;DHT22;65437;51.088;4.632;2022-12-07T08:15:29;17.60;50.30
76573;DHT22;65437;51.088;4.632;2022-12-07T08:17:56;17.70;50.40
76573;DHT22;65437;51.088;4.632;2022-12-07T08:20:23;17.60;50.40
76573;DHT22;65437;51.088;4.632;2022-12-07T08:22:50;17.70;50.40
76573;DHT22;65437;51.088;4.632;2022-12-07T08:25:17;17.60;50.30
76573;DHT22;65437;51.088;4.632;2022-12-07T08:27:44;17.70;50.40
76573;DHT22;65437;51.088;4.632;2022-12-07T08:30:11;17.70;50.30
76573;DHT22;65437;51.088;4.632;2022-12-07T08:32:39;17.60;50.20
76573;DHT22;65437;51.088;4.632;2022-12-07T08:35:06;17.70;50.20
76573;DHT22;65437;51.088;4.632;2022-12-07T08:37:33;17.70;50.20
76573;DHT22;65437;51.088;4.632;2022-12-07T08:40:00;17.70;50.20
76573;DHT22;65437;51.088;4.632;2022-12-07T08:42:27;17.80;50.20
76573;DHT22;65437;51.088;4.632;2022-12-07T08:44:56;17.80;49.90
76573;DHT22;65437;51.088;4.632;2022-12-07T08:47:23;18.00;49.80
76573;DHT22;65437;51.088;4.632;2022-12-07T08:49:50;18.00;49.50
76573;DHT22;65437;51.088;4.632;2022-12-07T08:52:19;17.90;49.30
76573;DHT22;65437;51.088;4.632;2022-12-07T08:54:45;17.90;49.30
76573;DHT22;65437;51.088;4.632;2022-12-07T08:57:13;18.00;49.40
76573;DHT22;65437;51.088;4.632;2022-12-07T08:59:40;18.00;49.10
76573;DHT22;65437;51.088;4.632;2022-12-07T09:02:07;18.00;49.10
76573;DHT22;65437;51.088;4.632;2022-12-07T09:04:34;18.10;49.10
76573;DHT22;65437;51.088;4.632;2022-12-07T09:07:01;18.10;49.00
76573;DHT22;65437;51.088;4.632;2022-12-07T09:09:28;18.10;48.70
76573;DHT22;65437;51.088;4.632;2022-12-07T09:11:55;18.10;48.80
76573;DHT22;65437;51.088;4.632;2022-12-07T09:14:22;18.10;48.70
76573;DHT22;65437;51.088;4.632;2022-12-07T09:16:50;18.10;48.70
76573;DHT22;65437;51.088;4.632;2022-12-07T09:19:17;18.10;48.70
76573;DHT22;65437;51.088;4.632;2022-12-07T09:21:44;18.10;48.80
76573;DHT22;65437;51.088;4.632;2022-12-07T09:24:11;18.10;48.70
76573;DHT22;65437;51.088;4.632;2022-12-07T09:26:38;18.10;48.70
76573;DHT22;65437;51.088;4.632;2022-12-07T09:29:06;18.10;48.70
76573;DHT22;65437;51.088;4.632;2022-12-07T09:31:35;18.10;48.70
76573;DHT22;65437;51.088;4.632;2022-12-07T09:34:01;18.10;48.60
76573;DHT22;65437;51.088;4.632;2022-12-07T09:36:28;18.10;48.60
76573;DHT22;65437;51.088;4.632;2022-12-07T09:38:56;18.10;48.50
76573;DHT22;65437;51.088;4.632;2022-12-07T09:41:23;18.10;48.50
76573;DHT22;65437;51.088;4.632;2022-12-07T09:43:50;18.20;48.40
76573;DHT22;65437;51.088;4.632;2022-12-07T09:46:18;18.20;48.30
76573;DHT22;65437;51.088;4.632;2022-12-07T09:48:46;18.20;48.10
76573;DHT22;65437;51.088;4.632;2022-12-07T09:51:18;18.30;48.10
76573;DHT22;65437;51.088;4.632;2022-12-07T09:53:45;18.20;47.70
76573;DHT22;65437;51.088;4.632;2022-12-07T09:56:13;18.30;47.70
76573;DHT22;65437;51.088;4.632;2022-12-07T09:58:41;17.90;47.10
76573;DHT22;65437;51.088;4.632;2022-12-07T10:03:37;17.90;48.50
76573;DHT22;65437;51.088;4.632;2022-12-07T10:06:05;17.90;48.50
76573;DHT22;65437;51.088;4.632;2022-12-07T10:08:33;18.00;48.40
76573;DHT22;65437;51.088;4.632;2022-12-07T10:11:01;18.00;48.30
76573;DHT22;65437;51.088;4.632;2022-12-07T10:13:37;18.10;48.20
76573;DHT22;65437;51.088;4.632;2022-12-07T10:16:04;18.10;48.00
76573;DHT22;65437;51.088;4.632;2022-12-07T10:18:38;18.20;48.00
76573;DHT22;65437;51.088;4.632;2022-12-07T10:23:36;18.10;48.00
76573;DHT22;65437;51.088;4.632;2022-12-07T10:28:48;18.00;48.10
76573;DHT22;65437;51.088;4.632;2022-12-07T10:31:16;18.00;48.20
76573;DHT22;65437;51.088;4.632;2022-12-07T10:33:57;18.00;48.10
76573;DHT22;65437;51.088;4.632;2022-12-07T10:36:26;18.10;48.10
76573;DHT22;65437;51.088;4.632;2022-12-07T10:39:09;18.10;48.70
76573;DHT22;65437;51.088;4.632;2022-12-07T10:41:22;18.10;48.00
76573;DHT22;65437;51.088;4.632;2022-12-07T10:43:50;18.20;48.00
76573;DHT22;65437;51.088;4.632;2022-12-07T10:54:23;18.40;47.50
76573;DHT22;65437;51.088;4.632;2022-12-07T10:56:54;18.40;47.40
76573;DHT22;65437;51.088;4.632;2022-12-07T11:10:08;18.60;46.90
76573;DHT22;65437;51.088;4.632;2022-12-07T11:15:18;18.70;46.60
76573;DHT22;65437;51.088;4.632;2022-12-07T11:17:51;18.70;46.50
76573;DHT22;65437;51.088;4.632;2022-12-07T11:22:55;18.50;46.80
76573;DHT22;65437;51.088;4.632;2022-12-07T11:25:20;18.30;47.00
76573;DHT22;65437;51.088;4.632;2022-12-07T11:30:27;18.20;47.40
76573;DHT22;65437;51.088;4.632;2022-12-07T11:37:49;18.20;47.70
76573;DHT22;65437;51.088;4.632;2022-12-07T11:40:28;18.20;47.60
76573;DHT22;65437;51.088;4.632;2022-12-07T11:43:12;18.20;47.50
76573;DHT22;65437;51.088;4.632;2022-12-07T11:45:37;18.30;47.40
76573;DHT22;65437;51.088;4.632;2022-12-07T11:48:06;18.30;47.40
76573;DHT22;65437;51.088;4.632;2022-12-07T11:50:37;18.30;47.40
76573;DHT22;65437;51.088;4.632;2022-12-07T11:55:44;18.40;47.20
76573;DHT22;65437;51.088;4.632;2022-12-07T11:58:28;18.40;47.00
76573;DHT22;65437;51.088;4.632;2022-12-07T12:00:51;18.50;46.90
76573;DHT22;65437;51.088;4.632;2022-12-07T12:03:25;18.60;46.80
76573;DHT22;65437;51.088;4.632;2022-12-07T12:05:47;18.60;46.60
76573;DHT22;65437;51.088;4.632;2022-12-07T12:08:16;18.70;46.60
76573;DHT22;65437;51.088;4.632;2022-12-07T12:10:51;18.70;46.30
76573;DHT22;65437;51.088;4.632;2022-12-07T12:13:21;18.80;46.40
76573;DHT22;65437;51.088;4.632;2022-12-07T12:15:55;18.80;46.30
76573;DHT22;65437;51.088;4.632;2022-12-07T12:21:03;19.00;46.10
76573;DHT22;65437;51.088;4.632;2022-12-07T12:23:46;19.00;45.90
76573;DHT22;65437;51.088;4.632;2022-12-07T12:25:59;19.10;45.90
76573;DHT22;65437;51.088;4.632;2022-12-07T12:33:47;19.10;45.60
76573;DHT22;65437;51.088;4.632;2022-12-07T12:51:48;18.80;46.10
76573;DHT22;65437;51.088;4.632;2022-12-07T12:54:18;18.80;46.10
76573;DHT22;65437;51.088;4.632;2022-12-07T12:59:28;18.80;46.30
76573;DHT22;65437;51.088;4.632;2022-12-07T13:04:55;18.70;46.30
76573;DHT22;65437;51.088;4.632;2022-12-07T13:10:04;18.60;46.50
76573;DHT22;65437;51.088;4.632;2022-12-07T13:12:31;18.60;46.50
76573;DHT22;65437;51.088;4.632;2022-12-07T13:14:58;18.60;46.50
76573;DHT22;65437;51.088;4.632;2022-12-07T13:20:00;18.80;46.30
76573;DHT22;65437;51.088;4.632;2022-12-07T13:22:34;18.90;46.10
76573;DHT22;65437;51.088;4.632;2022-12-07T13:25:07;19.00;46.00
76573;DHT22;65437;51.088;4.632;2022-12-07T13:27:34;19.00;45.80
76573;DHT22;65437;51.088;4.632;2022-12-07T13:30:05;19.10;45.80
76573;DHT22;65437;51.088;4.632;2022-12-07T13:32:30;19.10;45.40
76573;DHT22;65437;51.088;4.632;2022-12-07T13:34:57;19.10;45.10
76573;DHT22;65437;51.088;4.632;2022-12-07T13:39:53;19.00;45.20
76573;DHT22;65437;51.088;4.632;2022-12-07T13:44:49;18.90;45.40
76573;DHT22;65437;51.088;4.632;2022-12-07T13:47:22;18.80;45.60
76573;DHT22;65437;51.088;4.632;2022-12-07T13:49:49;18.70;45.60
76573;DHT22;65437;51.088;4.632;2022-12-07T13:54:49;18.60;45.90
76573;DHT22;65437;51.088;4.632;2022-12-07T13:57:16;18.60;46.00
76573;DHT22;65437;51.088;4.632;2022-12-07T13:59:44;18.50;46.10
76573;DHT22;65437;51.088;4.632;2022-12-07T14:02:18;18.50;46.20
76573;DHT22;65437;51.088;4.632;2022-12-07T14:04:46;18.50;46.30
76573;DHT22;65437;51.088;4.632;2022-12-07T14:07:20;18.40;46.30
76573;DHT22;65437;51.088;4.632;2022-12-07T14:10:00;18.50;46.30
76573;DHT22;65437;51.088;4.632;2022-12-07T14:12:28;18.40;46.30
76573;DHT22;65437;51.088;4.632;2022-12-07T14:14:55;18.40;46.40
76573;DHT22;65437;51.088;4.632;2022-12-07T14:17:24;18.30;46.50
76573;DHT22;65437;51.088;4.632;2022-12-07T14:19:52;18.40;46.50
76573;DHT22;65437;51.088;4.632;2022-12-07T14:22:28;18.40;46.40
76573;DHT22;65437;51.088;4.632;2022-12-07T14:24:59;18.40;46.30
76573;DHT22;65437;51.088;4.632;2022-12-07T14:27:30;18.40;46.30
76573;DHT22;65437;51.088;4.632;2022-12-07T14:29:56;18.40;46.40
76573;DHT22;65437;51.088;4.632;2022-12-07T14:32:24;18.30;46.40
76573;DHT22;65437;51.088;4.632;2022-12-07T14:37:30;18.40;46.40
76573;DHT22;65437;51.088;4.632;2022-12-07T14:39:57;18.30;46.30
76573;DHT22;65437;51.088;4.632;2022-12-07T14:42:26;18.30;46.50
76573;DHT22;65437;51.088;4.632;2022-12-07T14:44:53;18.30;46.70
76573;DHT22;65437;51.088;4.632;2022-12-07T14:47:20;18.30;46.40
76573;DHT22;65437;51.088;4.632;2022-12-07T14:49:47;18.40;46.30
76573;DHT22;65437;51.088;4.632;2022-12-07T14:52:22;18.40;46.10
76573;DHT22;65437;51.088;4.632;2022-12-07T14:54:45;18.40;46.10
76573;DHT22;65437;51.088;4.632;2022-12-07T14:57:12;18.40;46.10
76573;DHT22;65437;51.088;4.632;2022-12-07T14:59:39;18.30;46.20
76573;DHT22;65437;51.088;4.632;2022-12-07T15:02:08;18.30;46.20
76573;DHT22;65437;51.088;4.632;2022-12-07T15:04:35;18.30;46.30
76573;DHT22;65437;51.088;4.632;2022-12-07T15:07:03;18.30;46.20
76573;DHT22;65437;51.088;4.632;2022-12-07T15:09:31;18.30;46.30
76573;DHT22;65437;51.088;4.632;2022-12-07T15:11:58;18.30;46.20
76573;DHT22;65437;51.088;4.632;2022-12-07T15:14:25;18.30;46.30
76573;DHT22;65437;51.088;4.632;2022-12-07T15:16:52;18.30;46.20
76573;DHT22;65437;51.088;4.632;2022-12-07T15:19:20;18.20;46.10
76573;DHT22;65437;51.088;4.632;2022-12-07T15:21:49;18.20;46.10
76573;DHT22;65437;51.088;4.632;2022-12-07T15:24:16;18.20;46.20
76573;DHT22;65437;51.088;4.632;2022-12-07T15:26:43;18.20;46.20
76573;DHT22;65437;51.088;4.632;2022-12-07T15:29:10;18.20;46.20
76573;DHT22;65437;51.088;4.632;2022-12-07T15:31:37;18.20;46.30
76573;DHT22;65437;51.088;4.632;2022-12-07T15:34:04;18.20;46.30
76573;DHT22;65437;51.088;4.632;2022-12-07T15:36:32;18.20;46.30
76573;DHT22;65437;51.088;4.632;2022-12-07T15:38:59;18.20;46.50
76573;DHT22;65437;51.088;4.632;2022-12-07T15:41:26;18.10;46.60
76573;DHT22;65437;51.088;4.632;2022-12-07T15:43:53;18.10;46.80
76573;DHT22;65437;51.088;4.632;2022-12-07T15:46:39;18.10;46.80
76573;DHT22;65437;51.088;4.632;2022-12-07T15:49:12;18.10;46.80
76573;DHT22;65437;51.088;4.632;2022-12-07T15:51:35;18.10;46.80
76573;DHT22;65437;51.088;4.632;2022-12-07T15:54:02;18.10;46.80
76573;DHT22;65437;51.088;4.632;2022-12-07T15:56:29;18.10;46.80
76573;DHT22;65437;51.088;4.632;2022-12-07T15:58:56;18.00;46.80
76573;DHT22;65437;51.088;4.632;2022-12-07T16:01:23;18.00;46.80
76573;DHT22;65437;51.088;4.632;2022-12-07T16:03:50;18.00;46.80
76573;DHT22;65437;51.088;4.632;2022-12-07T16:06:17;18.00;46.70
76573;DHT22;65437;51.088;4.632;2022-12-07T16:08:45;18.00;46.80
76573;DHT22;65437;51.088;4.632;2022-12-07T16:11:12;18.00;46.70
76573;DHT22;65437;51.088;4.632;2022-12-07T16:13:39;18.10;46.60
76573;DHT22;65437;51.088;4.632;2022-12-07T16:16:07;18.00;46.40
76573;DHT22;65437;51.088;4.632;2022-12-07T16:18:34;18.00;46.60
76573;DHT22;65437;51.088;4.632;2022-12-07T16:21:02;18.00;46.50
76573;DHT22;65437;51.088;4.632;2022-12-07T16:23:29;18.00;46.50
76573;DHT22;65437;51.088;4.632;2022-12-07T16:26:06;18.00;46.40
76573;DHT22;65437;51.088;4.632;2022-12-07T16:28:24;18.00;46.30
76573;DHT22;65437;51.088;4.632;2022-12-07T16:30:59;18.10;46.40
76573;DHT22;65437;51.088;4.632;2022-12-07T16:33:20;18.10;46.30
76573;DHT22;65437;51.088;4.632;2022-12-07T16:35:47;18.00;46.30
76573;DHT22;65437;51.088;4.632;2022-12-07T16:38:14;18.00;46.40
76573;DHT22;65437;51.088;4.632;2022-12-07T16:40:41;18.00;46.40
76573;DHT22;65437;51.088;4.632;2022-12-07T16:43:08;18.00;46.30
76573;DHT22;65437;51.088;4.632;2022-12-07T16:45:36;18.10;46.30
76573;DHT22;65437;51.088;4.632;2022-12-07T16:48:03;18.00;46.30
76573;DHT22;65437;51.088;4.632;2022-12-07T16:50:30;18.00;46.40
76573;DHT22;65437;51.088;4.632;2022-12-07T16:52:57;18.10;46.30
76573;DHT22;65437;51.088;4.632;2022-12-07T16:55:25;18.00;46.20
76573;DHT22;65437;51.088;4.632;2022-12-07T16:57:52;18.10;46.20
76573;DHT22;65437;51.088;4.632;2022-12-07T17:00:19;18.10;46.40
76573;DHT22;65437;51.088;4.632;2022-12-07T17:02:46;18.10;46.10
76573;DHT22;65437;51.088;4.632;2022-12-07T17:05:13;18.10;46.10
76573;DHT22;65437;51.088;4.632;2022-12-07T17:07:40;18.00;46.10
76573;DHT22;65437;51.088;4.632;2022-12-07T17:10:07;18.00;46.10
76573;DHT22;65437;51.088;4.632;2022-12-07T17:12:35;18.10;46.10
76573;DHT22;65437;51.088;4.632;2022-12-07T17:15:02;18.10;46.00
76573;DHT22;65437;51.088;4.632;2022-12-07T17:20:20;18.00;46.60
76573;DHT22;65437;51.088;4.632;2022-12-07T17:22:48;18.00;46.00